Time;durP1;ratioP1;P1;durP2;ratioP2;P2;SDS_P1;SDS_P2;PMS_P1;PMS_P2;Temp;Humidity;BMP_temperature;BMP_pressure;BME280_temperature;BME280_humidity;BME280_pressure;Samples;Min_cycle;Max_cycle;Signal;HPM_P1;HPM_P2
2023/03/02 00:01:52;;;;;;;;;;;;;;;;;;5049206;28;20289;-82
2023/03/02 00:04:17;;;;;;;;;;;;;;;;;;5052151;28;20312;-82
2023/03/02 00:06:42;;;;;;;;;;;;;;;;;;5049913;28;19924;-81
2023/03/02 00:09:07;;;;;;;;;;;;;;;;;;5051401;28;20014;-81
2023/03/02 00:11:32;;;;;;;;;;;;;;;;;;5051214;28;19917;-82
2023/03/02 00:13:57;;;;;;;;;;;;;;;;;;5048564;28;19966;-81
2023/03/02 00:16:22;;;;;;;;;;;;;;;;;;5050213;28;20461;-80
2023/03/02 00:18:47;;;;;;;;;;;;;;;;;;5051560;28;19919;-80
2023/03/02 00:21:13;;;;;;;;;;;;;;;;;;5048241;28;19919;-80
2023/03/02 00:23:38;;;;;;;;;;;;;;;;;;5051992;28;20388;-80
2023/03/02 00:26:03;;;;;;;;;;;;;;;;;;5053048;28;20346;-80
2023/03/02 00:28:28;;;;;;;;;;;;;;;;;;5055593;28;19916;-81
2023/03/02 00:30:53;;;;;;;;;;;;;;;;;;5047899;28;19967;-81
2023/03/02 00:33:19;;;;;;;;;;;;;;;;;;5050920;28;19909;-81
2023/03/02 00:35:44;;;;;;;;;;;;;;;;;;5052336;28;19919;-81
2023/03/02 00:38:10;;;;;;;;;;;;;;;;;;5050209;28;19921;-81
2023/03/02 00:40:35;;;;;;;;;;;;;;;;;;5066026;28;19913;-81
2023/03/02 00:43:00;;;;;;;;;;;;;;;;;;5049010;28;19913;-81
2023/03/02 00:45:25;;;;;;;;;;;;;;;;;;5050420;28;19920;-82
2023/03/02 00:47:50;;;;;;;;;;;;;;;;;;5050648;28;20301;-81
2023/03/02 00:50:15;;;;;;;;;;;;;;;;;;5047839;28;20417;-81
2023/03/02 00:52:40;;;;;;;;;;;;;;;;;;5051064;28;19913;-81
2023/03/02 00:55:06;;;;;;;;;;;;;;;;;;5075174;28;20455;-81
2023/03/02 00:57:31;;;;;;;;;;;;;;;;;;5043878;28;19921;-79
2023/03/02 00:59:56;;;;;;;;;;;;;;;;;;5047099;28;20372;-80
2023/03/02 01:02:22;;;;;;;;;;;;;;;;;;5049897;28;20403;-80
2023/03/02 01:04:47;;;;;;;;;;;;;;;;;;5051192;28;20280;-80
2023/03/02 01:07:12;;;;;;;;;;;;;;;;;;5050042;28;19917;-79
2023/03/02 01:09:37;;;;;;;;;;;;;;;;;;5083427;28;19916;-80
2023/03/02 01:12:02;;;;;;;;;;;;;;;;;;5046897;28;19952;-81
2023/03/02 01:14:28;;;;;;;;;;;;;;;;;;5050156;28;19914;-80
2023/03/02 01:16:53;;;;;;;;;;;;;;;;;;5050467;28;19928;-80
2023/03/02 01:19:18;;;;;;;;;;;;;;;;;;5050449;28;19912;-81
2023/03/02 01:21:43;;;;;;;;;;;;;;;;;;5048527;28;20008;-80
2023/03/02 01:24:08;;;;;;;;;;;;;;;;;;5051849;28;19921;-80
2023/03/02 01:26:33;;;;;;;;;;;;;;;;;;5049045;28;20423;-80
2023/03/02 01:28:58;;;;;;;;;;;;;;;;;;5050323;28;19938;-80
2023/03/02 01:31:24;;;;;;;;;;;;;;;;;;5048673;28;19913;-80
2023/03/02 01:33:49;;;;;;;;;;;;;;;;;;5043898;28;19917;-80
2023/03/02 01:36:14;;;;;;;;;;;;;;;;;;5049866;28;20288;-79
2023/03/02 01:38:39;;;;;;;;;;;;;;;;;;5057223;28;20340;-80
2023/03/02 01:41:04;;;;;;;;;;;;;;;;;;5049049;28;19913;-80
2023/03/02 01:43:29;;;;;;;;;;;;;;;;;;5047474;28;20023;-80
2023/03/02 01:45:55;;;;;;;;;;;;;;;;;;5047181;28;21034;-80
2023/03/02 01:48:21;;;;;;;;;;;;;;;;;;5050654;28;20472;-81
2023/03/02 01:50:46;;;;;;;;;;;;;;;;;;5048645;28;20011;-80
2023/03/02 01:53:11;;;;;;;;;;;;;;;;;;5048695;28;20019;-80
2023/03/02 01:55:37;;;;;;;;;;;;;;;;;;5049161;28;19920;-79
2023/03/02 01:58:02;;;;;;;;;;;;;;;;;;5055721;28;19924;-81
2023/03/02 02:00:27;;;;;;;;;;;;;;;;;;5049522;28;19921;-81
2023/03/02 02:02:53;;;;;;;;;;;;;;;;;;5049413;28;20364;-81
2023/03/02 02:05:18;;;;;;;;;;;;;;;;;;5037957;28;19917;-81
2023/03/02 02:07:43;;;;;;;;;;;;;;;;;;5048858;28;19916;-81
2023/03/02 02:10:08;;;;;;;;;;;;;;;;;;5048918;28;19943;-82
2023/03/02 02:12:33;;;;;;;;;;;;;;;;;;5047041;28;20003;-82
2023/03/02 02:14:59;;;;;;;;;;;;;;;;;;5047967;28;19924;-82
2023/03/02 02:17:25;;;;;;;;;;;;;;;;;;5081398;28;19961;-81
2023/03/02 02:19:50;;;;;;;;;;;;;;;;;;5082562;28;19913;-81
2023/03/02 02:22:15;;;;;;;;;;;;;;;;;;5049314;28;19913;-81
2023/03/02 02:24:40;;;;;;;;;;;;;;;;;;5043180;28;19912;-81
2023/03/02 02:27:05;;;;;;;;;;;;;;;;;;5045395;28;19920;-81
2023/03/02 02:29:31;;;;;;;;;;;;;;;;;;5052109;28;19920;-81
2023/03/02 02:31:57;;;;;;;;;;;;;;;;;;5061066;28;19909;-80
2023/03/02 02:34:22;;;;;;;;;;;;;;;;;;5051814;28;19932;-80
2023/03/02 02:36:48;;;;;;;;;;;;;;;;;;5047467;28;20365;-80
2023/03/02 02:39:13;;;;;;;;;;;;;;;;;;5049040;28;19913;-79
2023/03/02 02:41:38;;;;;;;;;;;;;;;;;;5050024;28;19913;-79
2023/03/02 02:44:03;;;;;;;;;;;;;;;;;;5046578;28;19943;-80
2023/03/02 02:46:28;;;;;;;;;;;;;;;;;;5048314;28;19912;-80
2023/03/02 02:48:53;;;;;;;;;;;;;;;;;;5045822;28;19962;-80
2023/03/02 02:51:18;;;;;;;;;;;;;;;;;;5047255;28;20361;-80
2023/03/02 02:53:43;;;;;;;;;;;;;;;;;;5082986;28;19917;-81
2023/03/02 02:56:09;;;;;;;;;;;;;;;;;;5048431;28;20328;-79
2023/03/02 02:58:34;;;;;;;;;;;;;;;;;;5081596;28;20372;-79
2023/03/02 03:00:59;;;;;;;;;;;;;;;;;;5050288;28;20384;-79
2023/03/02 03:03:27;;;;;;;;;;;;;;;;;;5048399;28;19967;-80
2023/03/02 03:05:53;;;;;;;;;;;;;;;;;;5053267;28;19916;-80
2023/03/02 03:08:18;;;;;;;;;;;;;;;;;;5069464;28;20265;-79
2023/03/02 03:10:43;;;;;;;;;;;;;;;;;;5049193;28;19932;-80
2023/03/02 03:13:08;;;;;;;;;;;;;;;;;;5048743;28;19924;-81
2023/03/02 03:15:33;;;;;;;;;;;;;;;;;;5051421;28;19920;-79
2023/03/02 03:17:58;;;;;;;;;;;;;;;;;;5079523;28;19921;-79
2023/03/02 03:20:23;;;;;;;;;;;;;;;;;;5083280;28;19974;-80
2023/03/02 03:22:48;;;;;;;;;;;;;;;;;;5058731;28;19913;-80
2023/03/02 03:25:14;;;;;;;;;;;;;;;;;;5044086;28;19944;-79
2023/03/02 03:27:41;;;;;;;;;;;;;;;;;;5075056;28;20348;-80
2023/03/02 03:30:06;;;;;;;;;;;;;;;;;;5076982;28;19913;-80
2023/03/02 03:32:34;;;;;;;;;;;;;;;;;;5051756;28;20316;-80
2023/03/02 03:34:59;;;;;;;;;;;;;;;;;;5050509;28;19913;-80
2023/03/02 03:37:24;;;;;;;;;;;;;;;;;;5052067;28;19919;-80
2023/03/02 03:39:49;;;;;;;;;;;;;;;;;;5052164;28;19956;-80
2023/03/02 03:42:14;;;;;;;;;;;;;;;;;;5050455;28;20557;-80
2023/03/02 03:44:40;;;;;;;;;;;;;;;;;;5049611;28;19913;-80
2023/03/02 03:47:05;;;;;;;;;;;;;;;;;;5064984;28;20274;-80
2023/03/02 03:49:30;;;;;;;;;;;;;;;;;;5068407;28;20012;-78
2023/03/02 03:51:55;;;;;;;;;;;;;;;;;;5067089;28;19913;-79
2023/03/02 03:54:20;;;;;;;;;;;;;;;;;;5051378;28;19958;-79
2023/03/02 03:56:45;;;;;;;;;;;;;;;;;;5044216;28;19921;-79
2023/03/02 03:59:11;;;;;;;;;;;;;;;;;;5050380;28;19929;-79
2023/03/02 04:01:36;;;;;;;;;;;;;;;;;;5051413;28;19912;-79
2023/03/02 04:04:01;;;;;;;;;;;;;;;;;;5065985;28;19913;-79
2023/03/02 04:06:26;;;;;;;;;;;;;;;;;;5083654;28;20394;-79
2023/03/02 04:08:51;;;;;;;;;;;;;;;;;;5066691;28;20583;-79
2023/03/02 04:11:16;;;;;;;;;;;;;;;;;;5051744;28;19909;-79
2023/03/02 04:13:42;;;;;;;;;;;;;;;;;;5048727;28;19959;-79
2023/03/02 04:16:07;;;;;;;;;;;;;;;;;;5051722;28;20332;-80
2023/03/02 04:18:32;;;;;;;;;;;;;;;;;;5051224;28;20278;-80
2023/03/02 04:20:57;;;;;;;;;;;;;;;;;;5048675;28;19919;-79
2023/03/02 04:23:22;;;;;;;;;;;;;;;;;;5048637;28;19917;-80
2023/03/02 04:25:47;;;;;;;;;;;;;;;;;;5049588;28;19912;-80
2023/03/02 04:28:12;;;;;;;;;;;;;;;;;;5051249;28;20370;-80
2023/03/02 04:30:37;;;;;;;;;;;;;;;;;;5048806;28;19940;-80
2023/03/02 04:33:03;;;;;;;;;;;;;;;;;;5073627;28;20007;-80
2023/03/02 04:35:28;;;;;;;;;;;;;;;;;;5051105;28;19916;-80
2023/03/02 04:37:53;;;;;;;;;;;;;;;;;;5050257;28;19924;-81
2023/03/02 04:40:18;;;;;;;;;;;;;;;;;;5060777;28;19920;-80
2023/03/02 04:42:43;;;;;;;;;;;;;;;;;;5056888;28;19917;-81
2023/03/02 04:45:08;;;;;;;;;;;;;;;;;;5048899;28;19928;-81
2023/03/02 04:47:34;;;;;;;;;;;;;;;;;;5062431;28;19912;-81
2023/03/02 04:49:59;;;;;;;;;;;;;;;;;;5051423;28;19935;-81
2023/03/02 04:52:24;;;;;;;;;;;;;;;;;;5064262;28;19913;-81
2023/03/02 04:54:49;;;;;;;;;;;;;;;;;;5049938;28;19927;-82
2023/03/02 04:57:14;;;;;;;;;;;;;;;;;;5049666;28;20573;-80
2023/03/02 04:59:39;;;;;;;;;;;;;;;;;;5054538;28;19917;-81
2023/03/02 05:02:04;;;;;;;;;;;;;;;;;;5051437;28;19920;-81
2023/03/02 05:04:30;;;;;;;;;;;;;;;;;;5056744;28;19913;-81
2023/03/02 05:06:55;;;;;;;;;;;;;;;;;;5044139;28;19913;-81
2023/03/02 05:09:25;;;;;;;;;;;;;;;;;;5046531;28;20562;-81
2023/03/02 05:11:51;;;;;;;;;;;;;;;;;;5050516;28;19987;-80
2023/03/02 05:14:16;;;;;;;;;;;;;;;;;;5048416;28;20353;-81
2023/03/02 05:16:41;;;;;;;;;;;;;;;;;;5081215;28;20389;-81
2023/03/02 05:19:06;;;;;;;;;;;;;;;;;;5049535;28;19943;-80
2023/03/02 05:21:31;;;;;;;;;;;;;;;;;;5058150;28;19975;-80
2023/03/02 05:23:56;;;;;;;;;;;;;;;;;;5050196;28;19912;-81
2023/03/02 05:26:21;;;;;;;;;;;;;;;;;;5060439;28;19919;-81
2023/03/02 05:28:47;;;;;;;;;;;;;;;;;;5079718;28;19920;-81
2023/03/02 05:31:12;;;;;;;;;;;;;;;;;;5047620;28;20381;-80
2023/03/02 05:33:37;;;;;;;;;;;;;;;;;;5049907;28;20401;-80
2023/03/02 05:36:02;;;;;;;;;;;;;;;;;;5048483;28;19924;-81
2023/03/02 05:38:30;;;;;;;;;;;;;;;;;;5048941;28;19928;-82
2023/03/02 05:40:55;;;;;;;;;;;;;;;;;;5050032;28;20364;-82
2023/03/02 05:43:20;;;;;;;;;;;;;;;;;;5046479;28;19912;-82
2023/03/02 05:45:45;;;;;;;;;;;;;;;;;;5057812;28;19913;-80
2023/03/02 05:48:10;;;;;;;;;;;;;;;;;;5060544;28;19979;-79
2023/03/02 05:50:35;;;;;;;;;;;;;;;;;;5048372;28;19952;-80
2023/03/02 05:53:01;;;;;;;;;;;;;;;;;;5047941;28;20035;-79
2023/03/02 05:55:26;;;;;;;;;;;;;;;;;;5050814;28;19913;-86
2023/03/02 05:57:52;;;;;;;;;;;;;;;;;;5046860;28;19920;-79
2023/03/02 06:00:17;;;;;;;;;;;;;;;;;;5062120;28;19913;-81
2023/03/02 06:02:42;;;;;;;;;;;;;;;;;;5079581;28;20171;-81
2023/03/02 06:05:07;;;;;;;;;;;;;;;;;;5050063;28;20387;-81
2023/03/02 06:07:32;;;;;;;;;;;;;;;;;;5047924;28;19913;-78
2023/03/02 06:09:57;;;;;;;;;;;;;;;;;;5048087;28;19991;-86
2023/03/02 06:12:22;;;;;;;;;;;;;;;;;;5056194;28;19944;-80
2023/03/02 06:14:48;;;;;;;;;;;;;;;;;;5055158;28;19917;-79
2023/03/02 06:17:13;;;;;;;;;;;;;;;;;;5048974;28;19925;-78
2023/03/02 06:19:38;;;;;;;;;;;;;;;;;;5045582;28;20389;-79
2023/03/02 06:22:03;;;;;;;;;;;;;;;;;;5055890;28;19928;-78
2023/03/02 06:24:28;;;;;;;;;;;;;;;;;;5047644;28;19916;-79
2023/03/02 06:26:53;;;;;;;;;;;;;;;;;;5051192;28;19917;-78
2023/03/02 06:29:18;;;;;;;;;;;;;;;;;;5049948;28;19942;-78
2023/03/02 06:31:43;;;;;;;;;;;;;;;;;;5049853;28;20032;-78
2023/03/02 06:34:09;;;;;;;;;;;;;;;;;;5047546;28;19924;-78
2023/03/02 06:36:37;;;;;;;;;;;;;;;;;;5049332;28;20254;-77
2023/03/02 06:39:02;;;;;;;;;;;;;;;;;;5051511;28;19913;-78
2023/03/02 06:41:27;;;;;;;;;;;;;;;;;;5059648;28;19912;-77
2023/03/02 06:43:52;;;;;;;;;;;;;;;;;;5045128;28;19924;-76
2023/03/02 06:46:18;;;;;;;;;;;;;;;;;;5050441;28;20060;-76
2023/03/02 06:48:43;;;;;;;;;;;;;;;;;;5035517;28;19917;-77
2023/03/02 06:51:08;;;;;;;;;;;;;;;;;;5054775;28;20377;-79
2023/03/02 06:53:34;;;;;;;;;;;;;;;;;;5058685;28;19936;-80
2023/03/02 06:55:59;;;;;;;;;;;;;;;;;;5050074;28;20343;-80
2023/03/02 06:58:24;;;;;;;;;;;;;;;;;;5056710;28;20372;-80
2023/03/02 07:00:49;;;;;;;;;;;;;;;;;;5050893;28;19955;-80
2023/03/02 07:03:14;;;;;;;;;;;;;;;;;;5068594;28;19920;-80
2023/03/02 07:05:39;;;;;;;;;;;;;;;;;;5076499;28;19963;-79
2023/03/02 07:08:05;;;;;;;;;;;;;;;;;;5052533;28;20534;-80
2023/03/02 07:10:30;;;;;;;;;;;;;;;;;;5050260;28;20328;-80
2023/03/02 07:12:55;;;;;;;;;;;;;;;;;;5047020;28;19912;-80
2023/03/02 07:15:20;;;;;;;;;;;;;;;;;;5057323;28;20114;-80
2023/03/02 07:17:46;;;;;;;;;;;;;;;;;;5051810;28;19920;-81
2023/03/02 07:20:11;;;;;;;;;;;;;;;;;;5051344;28;20031;-80
2023/03/02 07:22:36;;;;;;;;;;;;;;;;;;5050799;28;20300;-80
2023/03/02 07:25:01;;;;;;;;;;;;;;;;;;5050156;28;20428;-80
2023/03/02 07:27:26;;;;;;;;;;;;;;;;;;5051699;28;20361;-80
2023/03/02 07:29:51;;;;;;;;;;;;;;;;;;5050490;28;20426;-79
2023/03/02 07:32:17;;;;;;;;;;;;;;;;;;5049662;28;19927;-80
2023/03/02 07:34:42;;;;;;;;;;;;;;;;;;5086075;28;19936;-80
2023/03/02 07:37:07;;;;;;;;;;;;;;;;;;5049356;28;19913;-80
2023/03/02 07:39:32;;;;;;;;;;;;;;;;;;5039905;28;19986;-80
2023/03/02 07:41:58;;;;;;;;;;;;;;;;;;5050340;28;19908;-80
2023/03/02 07:44:23;;;;;;;;;;;;;;;;;;5057521;28;20337;-80
2023/03/02 07:46:48;;;;;;;;;;;;;;;;;;5049612;28;20288;-80
2023/03/02 07:49:13;;;;;;;;;;;;;;;;;;5051835;28;19912;-80
2023/03/02 07:51:38;;;;;;;;;;;;;;;;;;5046341;28;19951;-80
2023/03/02 07:54:03;;;;;;;;;;;;;;;;;;5051476;28;19920;-79
2023/03/02 07:56:29;;;;;;;;;;;;;;;;;;5059290;28;19921;-79
2023/03/02 07:58:54;;;;;;;;;;;;;;;;;;5050536;28;19975;-79
2023/03/02 08:01:19;;;;;;;;;;;;;;;;;;5048568;28;19908;-79
2023/03/02 08:03:44;;;;;;;;;;;;;;;;;;5052846;28;20011;-80
2023/03/02 08:06:09;;;;;;;;;;;;;;;;;;5053178;28;19913;-79
2023/03/02 08:08:34;;;;;;;;;;;;;;;;;;5051161;28;20046;-80
2023/03/02 08:10:59;;;;;;;;;;;;;;;;;;5053051;28;19975;-80
2023/03/02 08:13:24;;;;;;;;;;;;;;;;;;5048074;28;19935;-81
2023/03/02 08:15:50;;;;;;;;;;;;;;;;;;5082280;28;19921;-81
2023/03/02 08:18:15;;;;;;;;;;;;;;;;;;5051666;28;19971;-81
2023/03/02 08:20:40;;;;;;;;;;;;;;;;;;5049581;28;20292;-81
2023/03/02 08:23:05;;;;;;;;;;;;;;;;;;5049581;28;19913;-82
2023/03/02 08:25:30;;;;;;;;;;;;;;;;;;5051240;28;19912;-81
2023/03/02 08:27:55;;;;;;;;;;;;;;;;;;5061559;28;19913;-83
2023/03/02 08:30:20;;;;;;;;;;;;;;;;;;5082576;28;19916;-80
2023/03/02 08:32:46;;;;;;;;;;;;;;;;;;5050857;28;20004;-80
2023/03/02 08:35:11;;;;;;;;;;;;;;;;;;5046922;28;19990;-80
2023/03/02 08:37:36;;;;;;;;;;;;;;;;;;5046566;28;20019;-79
2023/03/02 08:40:02;;;;;;;;;;;;;;;;;;5048527;28;19913;-78
2023/03/02 08:42:27;;;;;;;;;;;;;;;;;;5046618;28;19931;-78
2023/03/02 08:44:52;;;;;;;;;;;;;;;;;;5063650;28;20281;-79
2023/03/02 08:47:18;;;;;;;;;;;;;;;;;;5065423;28;20226;-79
2023/03/02 08:49:43;;;;;;;;;;;;;;;;;;5057451;28;19971;-79
2023/03/02 08:52:08;;;;;;;;;;;;;;;;;;5039119;28;19917;-78
2023/03/02 08:54:33;;;;;;;;;;;;;;;;;;5045807;28;19912;-78
2023/03/02 08:56:58;;;;;;;;;;;;;;;;;;5054292;28;20403;-78
2023/03/02 08:59:24;;;;;;;;;;;;;;;;;;5048857;28;20457;-77
2023/03/02 09:01:49;;;;;;;;;;;;;;;;;;5044270;28;20039;-76
2023/03/02 09:04:14;;;;;;;;;;;;;;;;;;5049827;28;20396;-77
2023/03/02 09:06:39;;;;;;;;;;;;;;;;;;5051096;28;20277;-78
2023/03/02 09:09:04;;;;;;;;;;;;;;;;;;5051913;28;19920;-78
2023/03/02 09:11:29;;;;;;;;;;;;;;;;;;5051034;28;19908;-77
2023/03/02 09:13:55;;;;;;;;;;;;;;;;;;5047134;28;20284;-77
2023/03/02 09:16:20;;;;;;;;;;;;;;;;;;5080786;28;20285;-76
2023/03/02 09:18:45;;;;;;;;;;;;;;;;;;5050445;28;19923;-76
2023/03/02 09:21:10;;;;;;;;;;;;;;;;;;5046710;28;19912;-78
2023/03/02 09:23:35;;;;;;;;;;;;;;;;;;5047820;28;19951;-76
2023/03/02 09:26:00;;;;;;;;;;;;;;;;;;5082566;28;19999;-77
2023/03/02 09:28:26;;;;;;;;;;;;;;;;;;5049540;28;19916;-78
2023/03/02 09:30:51;;;;;;;;;;;;;;;;;;5047413;28;19971;-78
2023/03/02 09:33:16;;;;;;;;;;;;;;;;;;5045788;28;20026;-78
2023/03/02 09:35:41;;;;;;;;;;;;;;;;;;5047648;28;19919;-78
2023/03/02 09:38:06;;;;;;;;;;;;;;;;;;5079923;28;19917;-80
2023/03/02 09:40:31;;;;;;;;;;;;;;;;;;5049434;28;19917;-80
2023/03/02 09:42:56;;;;;;;;;;;;;;;;;;5044659;28;20069;-80
2023/03/02 09:45:21;;;;;;;;;;;;;;;;;;5043909;28;19912;-79
2023/03/02 09:47:47;;;;;;;;;;;;;;;;;;5048281;28;19959;-79
2023/03/02 09:50:12;;;;;;;;;;;;;;;;;;5047593;28;19917;-78
2023/03/02 09:52:39;;;;;;;;;;;;;;;;;;5049892;28;20492;-78
2023/03/02 09:55:04;;;;;;;;;;;;;;;;;;5049088;28;20066;-78
2023/03/02 09:57:29;;;;;;;;;;;;;;;;;;5046599;28;20023;-77
2023/03/02 09:59:54;;;;;;;;;;;;;;;;;;5077744;28;19913;-80
2023/03/02 10:02:19;;;;;;;;;;;;;;;;;;5049234;28;19909;-80
2023/03/02 10:04:44;;;;;;;;;;;;;;;;;;5051040;28;20013;-80
2023/03/02 10:07:10;;;;;;;;;;;;;;;;;;5045755;28;20357;-81
2023/03/02 10:09:35;;;;;;;;;;;;;;;;;;5047630;28;19962;-81
2023/03/02 10:12:00;;;;;;;;;;;;;;;;;;5047619;28;19968;-82
2023/03/02 10:14:26;;;;;;;;;;;;;;;;;;5051347;28;19944;-80
2023/03/02 10:16:51;;;;;;;;;;;;;;;;;;5065971;28;19913;-79
2023/03/02 10:19:16;;;;;;;;;;;;;;;;;;5065399;28;19924;-79
2023/03/02 10:21:41;;;;;;;;;;;;;;;;;;5079109;28;20568;-79
2023/03/02 10:24:06;;;;;;;;;;;;;;;;;;5052661;28;19948;-82
2023/03/02 10:26:31;;;;;;;;;;;;;;;;;;5051910;28;19958;-82
2023/03/02 10:28:56;;;;;;;;;;;;;;;;;;5055351;28;19939;-82
2023/03/02 10:31:22;;;;;;;;;;;;;;;;;;5058718;28;19916;-83
2023/03/02 10:33:47;;;;;;;;;;;;;;;;;;5053327;28;19913;-80
2023/03/02 10:36:12;;;;;;;;;;;;;;;;;;5056338;28;19920;-82
2023/03/02 10:38:37;;;;;;;;;;;;;;;;;;5054283;28;19912;-79
2023/03/02 10:41:02;;;;;;;;;;;;;;;;;;5054451;28;19959;-77
2023/03/02 10:43:27;;;;;;;;;;;;;;;;;;5048403;28;19913;-81
2023/03/02 10:45:52;;;;;;;;;;;;;;;;;;5050597;28;19921;-80
2023/03/02 10:48:17;;;;;;;;;;;;;;;;;;5064626;28;20316;-80
2023/03/02 10:50:43;;;;;;;;;;;;;;;;;;5055129;28;20385;-80
2023/03/02 10:53:08;;;;;;;;;;;;;;;;;;5051162;28;20436;-80
2023/03/02 10:55:33;;;;;;;;;;;;;;;;;;5053908;28;19917;-81
2023/03/02 10:57:59;;;;;;;;;;;;;;;;;;5052085;28;20392;-81
2023/03/02 11:00:24;;;;;;;;;;;;;;;;;;5049468;28;19920;-80
2023/03/02 11:02:50;;;;;;;;;;;;;;;;;;5051735;28;19913;-81
2023/03/02 11:05:15;;;;;;;;;;;;;;;;;;5052468;28;19913;-80
2023/03/02 11:07:40;;;;;;;;;;;;;;;;;;5050215;28;20300;-78
2023/03/02 11:10:05;;;;;;;;;;;;;;;;;;5052956;28;19913;-78
2023/03/02 11:12:30;;;;;;;;;;;;;;;;;;5049528;28;19962;-80
2023/03/02 11:14:55;;;;;;;;;;;;;;;;;;5052298;28;20381;-81
2023/03/02 11:17:20;;;;;;;;;;;;;;;;;;5052075;28;19913;-80
2023/03/02 11:19:46;;;;;;;;;;;;;;;;;;5053609;28;20364;-80
2023/03/02 11:22:11;;;;;;;;;;;;;;;;;;5052080;28;19938;-78
2023/03/02 11:24:36;;;;;;;;;;;;;;;;;;5052880;28;19913;-79
2023/03/02 11:27:02;;;;;;;;;;;;;;;;;;5052270;28;19919;-79
2023/03/02 11:29:27;;;;;;;;;;;;;;;;;;5050875;28;19993;-79
2023/03/02 11:31:52;;;;;;;;;;;;;;;;;;5048053;28;19970;-79
2023/03/02 11:34:17;;;;;;;;;;;;;;;;;;5052577;28;19913;-80
2023/03/02 11:36:42;;;;;;;;;;;;;;;;;;5082391;28;20339;-81
2023/03/02 11:39:08;;;;;;;;;;;;;;;;;;5052974;28;20320;-81
2023/03/02 11:41:34;;;;;;;;;;;;;;;;;;5051944;28;20003;-81
2023/03/02 11:43:59;;;;;;;;;;;;;;;;;;5051749;28;20357;-81
2023/03/02 11:46:25;;;;;;;;;;;;;;;;;;5052348;28;19967;-81
2023/03/02 11:48:50;;;;;;;;;;;;;;;;;;5051508;28;19919;-81
2023/03/02 11:51:15;;;;;;;;;;;;;;;;;;5084204;28;20027;-81
2023/03/02 11:53:40;;;;;;;;;;;;;;;;;;5052300;28;19920;-81
2023/03/02 11:56:05;;;;;;;;;;;;;;;;;;5059472;28;19920;-80
2023/03/02 11:58:31;;;;;;;;;;;;;;;;;;5083787;28;19928;-78
2023/03/02 12:00:57;;;;;;;;;;;;;;;;;;5052087;28;19913;-78
2023/03/02 12:03:22;;;;;;;;;;;;;;;;;;5057554;28;19916;-78
2023/03/02 12:05:47;;;;;;;;;;;;;;;;;;5053166;28;19913;-82
2023/03/02 12:08:12;;;;;;;;;;;;;;;;;;5053972;28;20352;-82
2023/03/02 12:10:37;;;;;;;;;;;;;;;;;;5054860;28;19909;-81
2023/03/02 12:13:02;;;;;;;;;;;;;;;;;;5052792;28;20019;-82
2023/03/02 12:15:27;;;;;;;;;;;;;;;;;;5051451;28;19916;-81
2023/03/02 12:17:53;;;;;;;;;;;;;;;;;;5051945;28;19943;-81
2023/03/02 12:20:18;;;;;;;;;;;;;;;;;;5067110;28;19909;-81
2023/03/02 12:22:43;;;;;;;;;;;;;;;;;;5051528;28;19917;-82
2023/03/02 12:25:08;;;;;;;;;;;;;;;;;;5062925;28;20396;-82
2023/03/02 12:27:33;;;;;;;;;;;;;;;;;;5054728;28;19978;-81
2023/03/02 12:29:58;;;;;;;;;;;;;;;;;;5068193;28;19963;-81
2023/03/02 12:32:24;;;;;;;;;;;;;;;;;;5066471;28;20351;-81
2023/03/02 12:34:49;;;;;;;;;;;;;;;;;;5087136;28;20372;-81
2023/03/02 12:37:14;;;;;;;;;;;;;;;;;;5082624;28;20356;-81
2023/03/02 12:39:39;;;;;;;;;;;;;;;;;;5059212;28;20373;-81
2023/03/02 12:42:04;;;;;;;;;;;;;;;;;;5048033;28;19943;-81
2023/03/02 12:44:30;;;;;;;;;;;;;;;;;;5066747;28;20320;-81
2023/03/02 12:46:55;;;;;;;;;;;;;;;;;;5052180;28;20359;-81
2023/03/02 12:49:20;;;;;;;;;;;;;;;;;;5050207;28;20390;-81
2023/03/02 12:51:45;;;;;;;;;;;;;;;;;;5051340;28;19920;-81
2023/03/02 12:54:11;;;;;;;;;;;;;;;;;;5050171;28;20015;-82
2023/03/02 12:56:36;;;;;;;;;;;;;;;;;;5051388;28;20353;-81
2023/03/02 12:59:01;;;;;;;;;;;;;;;;;;5050112;28;19916;-81
2023/03/02 13:01:26;;;;;;;;;;;;;;;;;;5064746;28;19919;-81
2023/03/02 13:03:51;;;;;;;;;;;;;;;;;;5051002;28;20012;-81
2023/03/02 13:06:16;;;;;;;;;;;;;;;;;;5080887;28;19909;-82
2023/03/02 13:08:41;;;;;;;;;;;;;;;;;;5056641;28;19913;-80
2023/03/02 13:11:07;;;;;;;;;;;;;;;;;;5047316;28;19936;-80
2023/03/02 13:13:32;;;;;;;;;;;;;;;;;;5051139;28;20265;-76
2023/03/02 13:15:57;;;;;;;;;;;;;;;;;;5051546;28;19917;-83
2023/03/02 13:18:22;;;;;;;;;;;;;;;;;;5052275;28;19923;-85
2023/03/02 13:20:47;;;;;;;;;;;;;;;;;;5062010;28;19927;-83
2023/03/02 13:23:12;;;;;;;;;;;;;;;;;;5083681;28;20388;-82
2023/03/02 13:25:38;;;;;;;;;;;;;;;;;;5066185;28;20369;-83
2023/03/02 13:28:08;;;;;;;;;;;;;;;;;;5067237;28;19962;-83
2023/03/02 13:30:33;;;;;;;;;;;;;;;;;;5042392;28;20384;-81
2023/03/02 13:32:59;;;;;;;;;;;;;;;;;;5047585;28;19959;-82
2023/03/02 13:35:25;;;;;;;;;;;;;;;;;;5081537;28;19909;-82
2023/03/02 13:37:50;;;;;;;;;;;;;;;;;;5050143;28;19913;-84
2023/03/02 13:40:15;;;;;;;;;;;;;;;;;;5042478;28;19972;-82
2023/03/02 13:42:40;;;;;;;;;;;;;;;;;;5050092;28;19920;-83
2023/03/02 13:45:05;;;;;;;;;;;;;;;;;;5066968;28;20262;-83
2023/03/02 13:47:30;;;;;;;;;;;;;;;;;;5051843;28;19958;-81
2023/03/02 13:49:55;;;;;;;;;;;;;;;;;;5049635;28;20391;-79
2023/03/02 13:52:21;;;;;;;;;;;;;;;;;;5052027;28;19913;-81
2023/03/02 13:54:46;;;;;;;;;;;;;;;;;;5051168;28;19916;-80
2023/03/02 13:57:11;;;;;;;;;;;;;;;;;;5050883;28;19931;-80
2023/03/02 13:59:38;;;;;;;;;;;;;;;;;;5047356;28;20346;-81
2023/03/02 14:02:04;;;;;;;;;;;;;;;;;;5049479;28;20368;-83
2023/03/02 14:04:29;;;;;;;;;;;;;;;;;;5065880;28;19919;-82
2023/03/02 14:06:54;;;;;;;;;;;;;;;;;;5067870;28;19940;-84
2023/03/02 14:09:19;;;;;;;;;;;;;;;;;;5058115;28;19913;-79
2023/03/02 14:11:44;;;;;;;;;;;;;;;;;;5034424;28;19917;-78
2023/03/02 14:14:09;;;;;;;;;;;;;;;;;;5048677;28;19923;-79
2023/03/02 14:16:34;;;;;;;;;;;;;;;;;;5051200;28;19947;-80
2023/03/02 14:19:00;;;;;;;;;;;;;;;;;;5048230;28;20285;-79
2023/03/02 14:21:25;;;;;;;;;;;;;;;;;;5045523;28;19990;-79
2023/03/02 14:23:51;;;;;;;;;;;;;;;;;;5049512;28;19912;-79
2023/03/02 14:26:16;;;;;;;;;;;;;;;;;;5049973;28;20387;-78
2023/03/02 14:28:41;;;;;;;;;;;;;;;;;;5050691;28;19948;-78
2023/03/02 14:31:06;;;;;;;;;;;;;;;;;;5047294;28;19913;-79
2023/03/02 14:33:31;;;;;;;;;;;;;;;;;;5054110;28;19913;-78
2023/03/02 14:35:57;;;;;;;;;;;;;;;;;;5051647;28;19943;-78
2023/03/02 14:38:22;;;;;;;;;;;;;;;;;;5040511;28;19924;-77
2023/03/02 14:40:47;;;;;;;;;;;;;;;;;;5061904;28;20289;-77
2023/03/02 14:43:12;;;;;;;;;;;;;;;;;;5077645;28;20388;-77
2023/03/02 14:45:37;;;;;;;;;;;;;;;;;;5050078;28;19913;-79
2023/03/02 14:48:02;;;;;;;;;;;;;;;;;;5042634;28;19913;-78
2023/03/02 14:50:27;;;;;;;;;;;;;;;;;;5031862;28;19916;-78
2023/03/02 14:52:53;;;;;;;;;;;;;;;;;;5047632;28;19912;-79
2023/03/02 14:55:19;;;;;;;;;;;;;;;;;;5049228;28;19913;-78
2023/03/02 14:57:44;;;;;;;;;;;;;;;;;;5049708;28;19986;-78
2023/03/02 15:00:09;;;;;;;;;;;;;;;;;;5051662;28;19921;-79
2023/03/02 15:02:34;;;;;;;;;;;;;;;;;;5053749;28;19924;-76
2023/03/02 15:04:59;;;;;;;;;;;;;;;;;;5055233;28;20015;-79
2023/03/02 15:07:24;;;;;;;;;;;;;;;;;;5054739;28;19912;-80
2023/03/02 15:09:49;;;;;;;;;;;;;;;;;;5069580;28;19917;-79
2023/03/02 15:12:14;;;;;;;;;;;;;;;;;;5065379;28;19921;-79
2023/03/02 15:14:40;;;;;;;;;;;;;;;;;;5052901;28;19909;-80
2023/03/02 15:17:05;;;;;;;;;;;;;;;;;;5057008;28;19913;-79
2023/03/02 15:19:30;;;;;;;;;;;;;;;;;;5053897;28;19909;-80
2023/03/02 15:21:55;;;;;;;;;;;;;;;;;;5052931;28;19912;-79
2023/03/02 15:24:22;;;;;;;;;;;;;;;;;;5052615;28;19919;-79
2023/03/02 15:26:47;;;;;;;;;;;;;;;;;;5050873;28;19913;-80
2023/03/02 15:29:12;;;;;;;;;;;;;;;;;;5047639;28;19914;-79
2023/03/02 15:31:37;;;;;;;;;;;;;;;;;;5063985;28;19916;-80
2023/03/02 15:34:02;;;;;;;;;;;;;;;;;;5069063;28;19921;-80
2023/03/02 15:36:27;;;;;;;;;;;;;;;;;;5054569;28;19913;-79
2023/03/02 15:38:53;;;;;;;;;;;;;;;;;;5048912;28;20278;-79
2023/03/02 15:41:19;;;;;;;;;;;;;;;;;;5061292;28;20280;-80
2023/03/02 15:43:44;;;;;;;;;;;;;;;;;;5057465;28;19982;-80
2023/03/02 15:46:09;;;;;;;;;;;;;;;;;;5050604;28;19938;-79
2023/03/02 15:48:34;;;;;;;;;;;;;;;;;;5060895;28;20004;-79
2023/03/02 15:50:59;;;;;;;;;;;;;;;;;;5051599;28;19913;-84
2023/03/02 15:53:24;;;;;;;;;;;;;;;;;;5051445;28;19917;-79
2023/03/02 15:55:50;;;;;;;;;;;;;;;;;;5048149;28;19956;-79
2023/03/02 15:58:16;;;;;;;;;;;;;;;;;;5052000;28;19925;-78
2023/03/02 16:00:41;;;;;;;;;;;;;;;;;;5050041;28;19920;-80
2023/03/02 16:03:06;;;;;;;;;;;;;;;;;;5053417;28;19909;-77
2023/03/02 16:05:31;;;;;;;;;;;;;;;;;;5047861;28;20308;-78
2023/03/02 16:07:57;;;;;;;;;;;;;;;;;;5050839;28;19951;-77
2023/03/02 16:10:25;;;;;;;;;;;;;;;;;;5083840;28;19913;-79
2023/03/02 16:12:50;;;;;;;;;;;;;;;;;;5065437;28;20396;-78
2023/03/02 16:15:15;;;;;;;;;;;;;;;;;;5053986;28;19917;-78
2023/03/02 16:17:40;;;;;;;;;;;;;;;;;;5050270;28;19962;-78
2023/03/02 16:20:05;;;;;;;;;;;;;;;;;;5068953;28;19956;-78
2023/03/02 16:22:30;;;;;;;;;;;;;;;;;;5080519;28;19920;-79
2023/03/02 16:24:55;;;;;;;;;;;;;;;;;;5079942;28;19991;-78
2023/03/02 16:27:20;;;;;;;;;;;;;;;;;;5050692;28;20720;-78
2023/03/02 16:29:46;;;;;;;;;;;;;;;;;;5050823;28;20361;-76
2023/03/02 16:32:11;;;;;;;;;;;;;;;;;;5050490;28;19912;-78